Time;durP1;ratioP1;P1;durP2;ratioP2;P2;SDS_P1;SDS_P2;PMS_P1;PMS_P2;Temp;Humidity;BMP_temperature;BMP_pressure;BME280_temperature;BME280_humidity;BME280_pressure;Samples;Min_cycle;Max_cycle;Signal;HPM_P1;HPM_P2
2021/01/25 00:00:27;;;;;;;10.65;5.55;;;2.40;97.30;;;;;;5042206;28;20115;-41
2021/01/25 00:02:53;;;;;;;10.23;5.75;;;2.60;96.80;;;;;;5047312;28;20025;-42
2021/01/25 00:05:18;;;;;;;9.48;6.70;;;2.50;97.20;;;;;;5033697;28;20113;-44
2021/01/25 00:07:44;;;;;;;9.65;6.30;;;2.40;98.30;;;;;;5029077;28;20037;-42
2021/01/25 00:10:09;;;;;;;6.93;5.90;;;2.50;98.50;;;;;;5027480;28;20029;-46
2021/01/25 00:12:35;;;;;;;7.95;4.65;;;2.50;98.80;;;;;;5029921;28;20033;-41
2021/01/25 00:15:01;;;;;;;6.32;4.43;;;2.50;98.30;;;;;;5046620;28;20123;-41
2021/01/25 00:17:26;;;;;;;5.30;4.10;;;2.50;96.80;;;;;;5045357;28;20076;-41
2021/01/25 00:19:52;;;;;;;5.53;4.32;;;2.50;96.80;;;;;;5030774;28;20401;-45
2021/01/25 00:22:17;;;;;;;5.10;4.32;;;2.50;97.30;;;;;;5029649;28;20034;-43
2021/01/25 00:24:43;;;;;;;4.78;4.18;;;2.50;97.60;;;;;;5047159;28;20037;-45
2021/01/25 00:27:09;;;;;;;8.65;3.97;;;2.50;98.00;;;;;;5034797;28;20411;-41
2021/01/25 00:29:34;;;;;;;7.03;3.90;;;2.70;97.50;;;;;;5051179;28;20030;-49
2021/01/25 00:32:00;;;;;;;6.70;4.47;;;2.80;97.40;;;;;;5041752;28;20045;-49
2021/01/25 00:34:25;;;;;;;6.32;4.85;;;2.70;97.10;;;;;;5035532;28;20112;-48
2021/01/25 00:36:51;;;;;;;6.35;4.85;;;2.70;97.00;;;;;;5035684;28;20025;-46
2021/01/25 00:39:17;;;;;;;6.95;4.85;;;2.70;97.20;;;;;;5033100;28;20026;-45
2021/01/25 00:41:42;;;;;;;5.78;4.28;;;2.70;97.60;;;;;;5033417;28;20026;-45
2021/01/25 00:44:08;;;;;;;8.18;5.15;;;2.60;97.60;;;;;;5031926;28;20013;-44
2021/01/25 00:46:33;;;;;;;9.48;4.57;;;2.50;98.10;;;;;;5033417;28;20034;-51
2021/01/25 00:48:59;;;;;;;7.82;4.60;;;2.50;98.00;;;;;;5033334;28;20068;-44
2021/01/25 00:51:24;;;;;;;5.97;4.22;;;2.40;98.10;;;;;;5033209;28;20026;-47
2021/01/25 00:53:50;;;;;;;6.88;4.88;;;2.40;98.20;;;;;;5033092;28;20044;-45
2021/01/25 00:56:15;;;;;;;8.20;4.15;;;2.40;98.40;;;;;;5033222;28;20030;-45
2021/01/25 00:58:41;;;;;;;7.22;4.72;;;2.30;98.60;;;;;;5033406;28;20037;-44
2021/01/25 01:01:07;;;;;;;5.25;4.05;;;2.40;98.70;;;;;;5033363;28;20032;-42
2021/01/25 01:03:32;;;;;;;6.25;4.43;;;2.50;98.20;;;;;;5033104;28;20029;-42
2021/01/25 01:05:58;;;;;;;5.75;3.55;;;2.60;98.20;;;;;;5033183;28;20013;-42
2021/01/25 01:08:24;;;;;;;6.53;4.80;;;2.50;98.30;;;;;;5032987;28;20033;-46
2021/01/25 01:10:49;;;;;;;7.18;3.70;;;2.50;98.30;;;;;;5033014;28;20021;-42
2021/01/25 01:13:15;;;;;;;8.65;4.38;;;2.50;98.50;;;;;;5032800;28;20033;-43
2021/01/25 01:15:40;;;;;;;6.78;4.90;;;2.50;98.90;;;;;;5033016;28;20447;-43
2021/01/25 01:18:06;;;;;;;4.13;3.40;;;2.50;99.20;;;;;;5031553;28;20386;-46
2021/01/25 01:20:32;;;;;;;8.18;4.32;;;2.60;99.10;;;;;;5032735;28;20041;-42
2021/01/25 01:22:58;;;;;;;8.25;3.88;;;2.50;99.10;;;;;;5032325;28;20026;-42
2021/01/25 01:25:23;;;;;;;4.90;3.53;;;2.50;99.50;;;;;;5032737;28;20021;-45
2021/01/25 01:27:49;;;;;;;5.93;3.20;;;2.50;99.60;;;;;;5032808;28;20022;-48
2021/01/25 01:30:15;;;;;;;4.32;3.50;;;2.60;99.40;;;;;;5031342;28;20029;-45
2021/01/25 01:32:40;;;;;;;4.78;3.85;;;2.60;99.60;;;;;;5031334;28;20082;-47
2021/01/25 01:35:07;;;;;;;7.05;3.70;;;2.70;99.90;;;;;;5032619;28;20022;-43
2021/01/25 01:37:33;;;;;;;4.65;3.22;;;2.70;99.60;;;;;;5032693;28;20032;-43
2021/01/25 01:40:00;;;;;;;6.43;3.67;;;2.70;99.70;;;;;;5031939;28;20064;-46
2021/01/25 01:42:25;;;;;;;3.83;3.25;;;2.70;99.90;;;;;;5032415;28;20025;-48
2021/01/25 01:44:51;;;;;;;9.38;3.13;;;2.70;99.90;;;;;;5031007;28;20025;-43
2021/01/25 01:47:20;;;;;;;8.18;3.42;;;2.60;99.90;;;;;;5031007;28;20396;-46
2021/01/25 01:49:46;;;;;;;5.63;2.78;;;2.60;99.90;;;;;;5048772;23;20095;-44
2021/01/25 01:52:11;;;;;;;4.03;3.30;;;2.60;99.90;;;;;;5032278;28;20030;-44
2021/01/25 01:54:39;;;;;;;5.72;4.05;;;2.60;99.90;;;;;;5032030;28;20444;-47
2021/01/25 01:57:05;;;;;;;4.28;2.95;;;2.70;99.90;;;;;;5032192;28;20033;-41
2021/01/25 01:59:30;;;;;;;5.15;3.75;;;2.80;99.90;;;;;;5032062;28;20032;-41
2021/01/25 02:01:56;;;;;;;4.20;3.80;;;2.80;99.90;;;;;;5032325;28;20111;-41
2021/01/25 02:04:21;;;;;;;9.52;3.33;;;2.90;99.90;;;;;;5031839;28;20029;-41
2021/01/25 02:06:48;;;;;;;4.53;3.05;;;2.90;99.90;;;;;;5032302;28;20124;-42
2021/01/25 02:09:15;;;;;;;4.90;3.47;;;2.90;99.90;;;;;;5030623;28;20060;-45
2021/01/25 02:11:42;;;;;;;2.80;2.60;;;2.90;99.90;;;;;;5031696;28;20128;-42
2021/01/25 02:14:08;;;;;;;3.42;3.13;;;2.80;99.90;;;;;;5031031;28;20095;-43
2021/01/25 02:16:37;;;;;;;6.07;3.80;;;2.80;99.90;;;;;;5032195;28;20089;-45
2021/01/25 02:19:03;;;;;;;7.65;3.50;;;2.70;99.90;;;;;;5032065;28;20086;-41
2021/01/25 02:21:30;;;;;;;5.57;3.45;;;2.70;99.90;;;;;;5031960;28;20061;-41
2021/01/25 02:24:18;;;;;;;6.90;3.42;;;2.70;99.90;;;;;;5029724;28;20032;-44
2021/01/25 02:26:54;;;;;;;6.85;4.68;;;2.70;99.90;;;;;;5031502;28;20376;-46
2021/01/25 02:29:20;;;;;;;6.15;3.65;;;2.70;99.90;;;;;;5031349;28;20276;-44
2021/01/25 02:31:48;;;;;;;3.85;3.33;;;2.80;99.90;;;;;;5031273;28;20496;-46
2021/01/25 02:34:15;;;;;;;3.88;3.33;;;2.70;99.90;;;;;;5030834;28;20064;-42
2021/01/25 02:36:43;;;;;;;4.00;3.60;;;2.80;99.90;;;;;;5032278;28;20036;-46
2021/01/25 02:39:09;;;;;;;4.43;3.63;;;2.80;99.90;;;;;;5031521;28;20021;-45
2021/01/25 02:41:35;;;;;;;4.20;3.28;;;2.80;99.90;;;;;;5031966;28;20037;-44
2021/01/25 02:44:04;;;;;;;5.20;3.47;;;2.90;99.90;;;;;;5029697;28;20490;-41
2021/01/25 02:46:30;;;;;;;5.00;3.65;;;2.90;99.90;;;;;;5030680;28;20025;-42
2021/01/25 02:48:56;;;;;;;4.63;3.80;;;2.90;99.90;;;;;;5031095;28;20022;-42
2021/01/25 02:51:22;;;;;;;4.38;3.97;;;3.00;99.90;;;;;;5031134;28;20056;-41
2021/01/25 02:53:48;;;;;;;4.65;3.90;;;3.10;99.90;;;;;;5030406;28;20021;-41
2021/01/25 02:56:14;;;;;;;7.60;4.18;;;3.00;99.90;;;;;;5030917;28;20022;-42
2021/01/25 02:58:40;;;;;;;5.47;4.35;;;2.90;99.90;;;;;;5030955;28;20061;-42
2021/01/25 03:01:06;;;;;;;8.57;4.95;;;2.90;99.90;;;;;;5030696;28;20104;-42
2021/01/25 03:03:34;;;;;;;6.82;4.22;;;2.70;99.90;;;;;;5028840;28;20113;-42
2021/01/25 03:05:59;;;;;;;4.60;4.13;;;2.60;99.90;;;;;;5030908;28;20058;-43
2021/01/25 03:08:26;;;;;;;7.03;4.45;;;2.60;99.90;;;;;;5030794;28;20025;-46
2021/01/25 03:10:52;;;;;;;4.97;4.03;;;2.50;99.90;;;;;;5030733;28;20435;-43
2021/01/25 03:13:17;;;;;;;6.00;4.43;;;2.50;99.90;;;;;;5030340;28;20037;-44
2021/01/25 03:15:44;;;;;;;6.75;4.10;;;2.50;99.90;;;;;;5030617;28;20072;-41
2021/01/25 03:18:10;;;;;;;8.90;5.00;;;2.40;99.90;;;;;;5030706;28;20029;-42
2021/01/25 03:20:35;;;;;;;5.10;4.55;;;2.50;99.90;;;;;;5030550;28;20030;-44
2021/01/25 03:23:01;;;;;;;5.45;4.55;;;2.50;99.90;;;;;;5029943;28;20136;-42
2021/01/25 03:25:26;;;;;;;7.93;4.03;;;2.50;99.90;;;;;;5030613;28;20036;-41
2021/01/25 03:27:52;;;;;;;4.97;4.25;;;2.50;99.90;;;;;;5030613;28;20025;-44
2021/01/25 03:30:18;;;;;;;5.65;3.97;;;2.40;99.90;;;;;;5030465;28;20097;-42
2021/01/25 03:32:44;;;;;;;4.63;4.20;;;2.30;99.90;;;;;;5029959;28;20034;-49
2021/01/25 03:35:11;;;;;;;6.30;4.45;;;2.40;99.90;;;;;;5030447;28;20489;-42
2021/01/25 03:37:38;;;;;;;5.57;4.47;;;2.50;99.90;;;;;;5030673;28;20025;-41
2021/01/25 03:40:05;;;;;;;7.40;4.95;;;2.50;99.90;;;;;;5028884;28;20608;-41
2021/01/25 03:42:31;;;;;;;5.13;4.55;;;2.50;99.90;;;;;;5030083;28;20029;-42
2021/01/25 03:44:57;;;;;;;6.32;5.05;;;2.50;99.90;;;;;;5030173;28;20029;-41
2021/01/25 03:47:22;;;;;;;6.00;4.82;;;2.40;99.90;;;;;;5030698;28;20055;-43
2021/01/25 03:49:48;;;;;;;8.75;4.88;;;2.40;99.90;;;;;;5030393;28;20044;-49
2021/01/25 03:52:13;;;;;;;8.32;4.43;;;2.30;99.90;;;;;;5030577;28;20439;-42
2021/01/25 03:54:39;;;;;;;5.78;4.38;;;2.20;99.90;;;;;;5029962;28;20037;-42
2021/01/25 03:57:04;;;;;;;7.82;4.85;;;2.20;99.90;;;;;;5030519;28;20040;-44
2021/01/25 03:59:30;;;;;;;7.22;4.03;;;2.20;99.90;;;;;;5032787;28;20037;-50
2021/01/25 04:01:56;;;;;;;5.80;4.88;;;2.10;99.90;;;;;;5034299;28;20032;-43
2021/01/25 04:04:22;;;;;;;4.47;4.07;;;2.20;99.90;;;;;;5033460;28;20021;-43
2021/01/25 04:06:47;;;;;;;7.20;4.43;;;2.20;99.90;;;;;;5034223;28;20060;-42
2021/01/25 04:09:13;;;;;;;6.85;4.47;;;2.40;99.90;;;;;;5034083;28;20029;-42
2021/01/25 04:11:38;;;;;;;6.70;4.57;;;2.50;99.90;;;;;;5034517;28;20053;-44
2021/01/25 04:14:07;;;;;;;6.93;4.72;;;2.60;99.90;;;;;;5033587;28;20026;-45
2021/01/25 04:16:32;;;;;;;5.65;4.60;;;2.60;99.90;;;;;;5033995;28;20064;-46
2021/01/25 04:18:58;;;;;;;7.43;4.93;;;2.60;99.90;;;;;;5033853;28;20615;-42
2021/01/25 04:21:23;;;;;;;10.10;4.47;;;2.50;99.90;;;;;;5033717;28;20096;-41
2021/01/25 04:23:49;;;;;;;5.88;5.00;;;2.40;99.90;;;;;;5033014;28;20128;-46
2021/01/25 04:26:15;;;;;;;6.22;4.72;;;2.40;99.90;;;;;;5032505;28;20036;-45
2021/01/25 04:28:42;;;;;;;5.75;4.15;;;2.50;99.90;;;;;;5033507;28;20025;-48
2021/01/25 04:31:08;;;;;;;6.97;4.72;;;2.40;99.90;;;;;;5032411;28;20076;-42
2021/01/25 04:33:33;;;;;;;5.90;4.40;;;2.30;99.90;;;;;;5031573;28;20025;-44
2021/01/25 04:35:59;;;;;;;8.80;5.53;;;2.20;99.90;;;;;;5033559;28;20400;-46
2021/01/25 04:38:24;;;;;;;4.80;4.40;;;2.10;99.90;;;;;;5033597;28;20057;-47
2021/01/25 04:40:50;;;;;;;8.43;5.15;;;2.10;99.90;;;;;;5032325;28;20041;-42
2021/01/25 04:43:17;;;;;;;5.53;4.63;;;2.20;99.90;;;;;;5032419;28;20025;-44
2021/01/25 04:45:43;;;;;;;6.28;5.68;;;2.40;99.90;;;;;;5033470;28;20477;-47
2021/01/25 04:48:09;;;;;;;9.50;5.00;;;2.40;99.90;;;;;;5033285;28;20036;-42
2021/01/25 04:50:35;;;;;;;5.55;4.95;;;2.40;99.90;;;;;;5033128;28;20030;-42
2021/01/25 04:53:01;;;;;;;8.38;5.22;;;2.40;99.90;;;;;;5032524;28;20074;-42
2021/01/25 04:55:27;;;;;;;7.15;4.53;;;2.40;99.90;;;;;;5032311;28;20037;-42
2021/01/25 04:57:53;;;;;;;7.88;5.10;;;2.40;99.90;;;;;;5033357;28;20112;-42
2021/01/25 05:00:19;;;;;;;6.80;4.75;;;2.30;99.90;;;;;;5033242;28;20029;-47
2021/01/25 05:02:45;;;;;;;6.47;5.00;;;2.40;99.90;;;;;;5032435;28;20084;-47
2021/01/25 05:05:11;;;;;;;9.50;5.40;;;2.40;99.90;;;;;;5033076;28;20543;-46
2021/01/25 05:07:37;;;;;;;8.18;6.57;;;2.40;99.90;;;;;;5033170;28;20107;-47
2021/01/25 05:10:05;;;;;;;6.00;5.40;;;2.50;99.90;;;;;;5032592;28;20089;-43
2021/01/25 05:13:00;;;;;;;8.35;5.40;;;2.50;99.90;;;;;;5032710;28;20083;-42
2021/01/25 05:15:31;;;;;;;6.30;5.40;;;2.50;99.90;;;;;;5036547;28;20044;-47
2021/01/25 05:18:00;;;;;;;7.30;5.03;;;2.50;99.90;;;;;;5032846;28;20493;-45
2021/01/25 05:20:27;;;;;;;8.65;5.65;;;2.50;99.90;;;;;;5033058;28;20805;-42
2021/01/25 05:22:59;;;;;;;8.13;5.95;;;2.40;99.90;;;;;;5032047;28;20397;-42
2021/01/25 05:25:27;;;;;;;7.97;5.38;;;2.40;99.90;;;;;;5032769;28;20455;-47
2021/01/25 05:27:53;;;;;;;7.40;6.30;;;2.30;99.90;;;;;;5032902;28;20032;-43
2021/01/25 05:30:19;;;;;;;7.22;5.55;;;2.30;99.90;;;;;;5032462;28;20428;-43
2021/01/25 05:32:52;;;;;;;12.13;6.60;;;2.30;99.90;;;;;;5031656;28;20100;-46
2021/01/25 05:35:30;;;;;;;6.28;5.57;;;2.30;99.90;;;;;;5032375;28;20046;-44
2021/01/25 05:38:03;;;;;;;10.27;6.63;;;2.30;99.90;;;;;;5032705;28;20113;-43
2021/01/25 05:40:31;;;;;;;9.88;6.13;;;2.20;99.90;;;;;;5031377;28;20139;-42
2021/01/25 05:42:58;;;;;;;9.57;6.68;;;2.30;99.90;;;;;;5031602;28;20036;-42
2021/01/25 05:45:28;;;;;;;10.70;6.65;;;2.30;99.90;;;;;;5032453;28;20613;-41
2021/01/25 05:47:57;;;;;;;10.43;6.90;;;2.30;99.90;;;;;;5031024;28;20030;-39
2021/01/25 05:50:28;;;;;;;13.55;6.55;;;2.30;99.90;;;;;;5032155;28;20033;-42
2021/01/25 05:52:56;;;;;;;10.48;6.65;;;2.40;99.90;;;;;;5031642;28;20029;-45
2021/01/25 05:55:22;;;;;;;8.60;6.00;;;2.40;99.90;;;;;;5032043;28;20025;-42
2021/01/25 05:57:48;;;;;;;10.55;6.22;;;2.40;99.90;;;;;;5031877;28;20025;-42
2021/01/25 06:00:14;;;;;;;12.20;7.13;;;2.40;99.90;;;;;;5031762;28;20079;-43
2021/01/25 06:02:47;;;;;;;10.75;7.50;;;2.40;99.90;;;;;;5031067;28;20500;-40
2021/01/25 06:05:34;;;;;;;11.70;7.47;;;2.30;99.90;;;;;;5032001;28;20041;-42
2021/01/25 06:08:34;;;;;;;10.25;8.13;;;2.20;99.90;;;;;;5031722;28;20092;-38
2021/01/25 06:11:14;;;;;;;12.48;7.50;;;2.30;99.90;;;;;;5031775;28;20021;-43
2021/01/25 06:13:52;;;;;;;13.50;8.80;;;2.20;99.90;;;;;;5031778;28;20052;-45
2021/01/25 06:16:22;;;;;;;13.45;8.75;;;2.20;99.90;;;;;;5033698;28;20112;-42
2021/01/25 06:18:48;;;;;;;14.75;8.75;;;2.10;99.90;;;;;;5034125;28;20081;-42
2021/01/25 06:21:18;;;;;;;11.93;8.48;;;2.20;99.90;;;;;;5033188;28;20441;-46
2021/01/25 06:23:44;;;;;;;16.80;9.50;;;2.30;99.90;;;;;;5031264;28;20104;-45
2021/01/25 06:26:11;;;;;;;13.07;8.93;;;2.20;99.90;;;;;;5032844;28;20029;-42
2021/01/25 06:28:41;;;;;;;16.85;10.13;;;2.10;99.90;;;;;;5034276;28;20455;-43
2021/01/25 06:31:07;;;;;;;19.95;10.88;;;2.10;99.90;;;;;;5034401;28;20025;-43
2021/01/25 06:33:39;;;;;;;14.75;9.13;;;2.20;99.90;;;;;;5034333;28;20664;-41
2021/01/25 06:36:08;;;;;;;13.65;9.50;;;2.20;99.90;;;;;;5034245;28;20061;-46
2021/01/25 06:38:38;;;;;;;14.57;9.65;;;2.20;99.90;;;;;;5032274;28;20033;-47
2021/01/25 06:41:13;;;;;;;12.70;8.35;;;2.30;99.90;;;;;;5030179;28;20033;-43
2021/01/25 06:43:40;;;;;;;;;;;2.20;99.90;;;;;;5031204;28;20030;-43
2021/01/25 06:46:05;;;;;;;15.88;8.80;;;2.20;99.90;;;;;;5032577;28;19905;-44
2021/01/25 06:48:31;;;;;;;12.70;8.50;;;2.20;99.90;;;;;;5033546;28;20071;-43
2021/01/25 06:51:00;;;;;;;14.52;10.20;;;2.20;99.90;;;;;;5033452;28;20109;-47
2021/01/25 06:53:26;;;;;;;13.57;8.98;;;2.30;99.90;;;;;;5032703;28;20396;-42
2021/01/25 06:55:58;;;;;;;11.57;9.20;;;2.40;99.90;;;;;;5032272;28;20032;-42
2021/01/25 06:58:28;;;;;;;11.85;9.20;;;2.40;99.90;;;;;;5031294;28;20022;-44
2021/01/25 07:00:53;;;;;;;10.35;8.77;;;2.40;99.90;;;;;;5031346;28;20047;-45
2021/01/25 07:03:21;;;;;;;12.20;9.35;;;2.40;99.90;;;;;;5030387;28;20415;-44
2021/01/25 07:05:49;;;;;;;10.27;8.50;;;2.40;99.90;;;;;;5030775;28;20025;-42
2021/01/25 07:08:20;;;;;;;15.90;9.85;;;2.40;99.90;;;;;;5030957;28;20058;-42
2021/01/25 07:10:56;;;;;;;13.75;8.57;;;2.50;99.90;;;;;;5030832;28;20028;-43
2021/01/25 07:13:26;;;;;;;13.63;9.98;;;2.50;99.90;;;;;;5029006;28;20164;-47
2021/01/25 07:15:53;;;;;;;19.02;10.40;;;2.50;99.90;;;;;;5030973;28;20032;-43
2021/01/25 07:18:20;;;;;;;15.75;10.75;;;2.50;99.90;;;;;;5031023;28;20025;-43
2021/01/25 07:20:50;;;;;;;14.93;10.88;;;2.50;99.90;;;;;;5031050;28;20048;-47
2021/01/25 07:23:18;;;;;;;14.07;11.25;;;2.50;99.90;;;;;;5030152;28;20076;-47
2021/01/25 07:25:53;;;;;;;12.63;10.70;;;2.50;99.90;;;;;;5030616;28;20643;-45
2021/01/25 07:28:18;;;;;;;15.50;11.35;;;2.50;99.90;;;;;;5031132;28;20396;-43
2021/01/25 07:30:44;;;;;;;15.75;11.63;;;2.60;99.90;;;;;;5030707;28;20021;-46
2021/01/25 07:33:10;;;;;;;17.20;11.65;;;2.60;99.90;;;;;;5028440;28;20037;-48
2021/01/25 07:35:35;;;;;;;19.35;11.55;;;2.60;99.90;;;;;;5031005;28;20036;-42
2021/01/25 07:38:01;;;;;;;14.52;12.20;;;2.50;99.90;;;;;;5030903;28;20026;-38
2021/01/25 07:40:26;;;;;;;15.23;11.98;;;2.50;99.90;;;;;;5011888;28;20026;-43
2021/01/25 07:42:53;;;;;;;14.35;11.30;;;2.50;99.90;;;;;;5029847;28;20026;-43
2021/01/25 07:45:22;;;;;;;17.42;11.45;;;2.50;99.90;;;;;;5030464;28;20057;-42
2021/01/25 07:47:47;;;;;;;19.33;12.20;;;2.50;99.90;;;;;;5031327;28;20148;-42
2021/01/25 07:50:13;;;;;;;17.10;12.82;;;2.50;99.90;;;;;;5042760;23;20072;-42
2021/01/25 07:52:39;;;;;;;16.00;11.93;;;2.60;99.90;;;;;;5009881;28;20558;-50
2021/01/25 07:55:15;;;;;;;23.58;13.32;;;2.60;99.90;;;;;;5010552;28;20128;-57
2021/01/25 07:57:42;;;;;;;21.83;12.45;;;2.60;99.90;;;;;;5010399;28;20041;-41
2021/01/25 08:00:18;;;;;;;17.63;11.93;;;2.60;99.90;;;;;;5009641;28;20065;-42
2021/01/25 08:02:53;;;;;;;15.35;12.32;;;2.60;99.90;;;;;;5009976;28;20022;-49
2021/01/25 08:05:19;;;;;;;16.92;12.00;;;2.60;99.90;;;;;;5010828;28;20037;-43
2021/01/25 08:07:46;;;;;;;19.63;12.48;;;2.70;99.90;;;;;;5009490;28;20030;-41
2021/01/25 08:10:13;;;;;;;17.25;12.63;;;2.70;99.90;;;;;;5010642;28;20022;-44
2021/01/25 08:12:40;;;;;;;16.65;12.00;;;2.70;99.90;;;;;;5010034;28;20021;-42
2021/01/25 08:15:11;;;;;;;15.45;12.20;;;2.80;99.90;;;;;;5010602;28;20544;-42
2021/01/25 08:17:41;;;;;;;21.77;14.10;;;2.80;99.90;;;;;;5010371;28;20034;-44
2021/01/25 08:20:12;;;;;;;17.77;14.15;;;2.70;99.90;;;;;;5010341;28;20448;-45
2021/01/25 08:22:48;;;;;;;20.13;13.68;;;2.70;99.90;;;;;;5008184;28;20029;-46
2021/01/25 08:25:20;;;;;;;19.52;15.10;;;2.80;99.90;;;;;;5010361;28;20017;-46
2021/01/25 08:28:12;;;;;;;19.88;12.75;;;2.80;99.90;;;;;;5010118;28;20428;-44
2021/01/25 08:30:44;;;;;;;16.52;12.95;;;2.80;99.90;;;;;;5009843;28;20080;-45
2021/01/25 08:33:12;;;;;;;19.35;11.73;;;2.80;99.90;;;;;;5009237;28;20109;-47
2021/01/25 08:35:54;;;;;;;15.57;12.27;;;2.80;99.90;;;;;;5009535;28;20029;-49
2021/01/25 08:38:31;;;;;;;17.05;12.77;;;2.80;99.90;;;;;;5010111;28;20042;-46
2021/01/25 08:40:59;;;;;;;15.73;13.23;;;2.80;99.90;;;;;;5007979;28;20029;-47
2021/01/25 08:43:27;;;;;;;16.63;13.43;;;2.80;99.90;;;;;;5009325;28;20095;-46
2021/01/25 08:46:05;;;;;;;17.77;13.02;;;2.80;99.90;;;;;;5012668;28;20025;-47
2021/01/25 08:48:33;;;;;;;15.57;13.13;;;2.80;99.90;;;;;;4995141;28;20526;-44
2021/01/25 08:51:28;;;;;;;18.65;12.57;;;2.80;99.90;;;;;;4993714;28;20109;-44
2021/01/25 08:54:20;;;;;;;15.13;12.43;;;2.70;99.90;;;;;;4991998;28;20437;-47
2021/01/25 08:56:46;;;;;;;20.02;12.95;;;2.70;99.90;;;;;;4994941;28;20045;-48
2021/01/25 08:59:14;;;;;;;17.10;13.05;;;2.70;99.90;;;;;;4993867;28;20038;-46
2021/01/25 09:01:43;;;;;;;20.73;13.43;;;2.80;99.90;;;;;;5002365;28;20048;-45
2021/01/25 09:04:09;;;;;;;18.25;12.68;;;2.70;99.90;;;;;;5011045;28;20030;-45
2021/01/25 09:06:48;;;;;;;16.75;13.07;;;2.70;99.90;;;;;;5003921;28;20014;-47
2021/01/25 09:09:13;;;;;;;18.65;13.23;;;2.70;99.90;;;;;;4993345;28;20097;-44
2021/01/25 09:11:39;;;;;;;17.55;13.35;;;2.70;99.90;;;;;;5003804;28;20101;-43
2021/01/25 09:14:05;;;;;;;18.80;13.90;;;2.70;99.90;;;;;;5010877;28;20026;-44
2021/01/25 09:16:30;;;;;;;22.15;14.70;;;2.70;99.90;;;;;;5004260;28;20022;-43
2021/01/25 09:18:56;;;;;;;16.25;12.77;;;2.80;99.90;;;;;;4993358;28;20088;-47
2021/01/25 09:21:21;;;;;;;16.50;13.43;;;2.70;99.90;;;;;;4999889;28;20029;-45
2021/01/25 09:23:47;;;;;;;19.20;14.68;;;2.80;99.90;;;;;;5010838;28;20069;-44
2021/01/25 09:26:12;;;;;;;15.60;12.82;;;2.80;99.90;;;;;;5008386;28;20454;-44
2021/01/25 09:28:38;;;;;;;19.88;13.70;;;2.80;99.90;;;;;;4993151;28;20039;-46
2021/01/25 09:31:04;;;;;;;17.67;13.85;;;2.80;99.90;;;;;;4993060;28;20014;-44
2021/01/25 09:33:29;;;;;;;21.08;14.63;;;2.80;99.90;;;;;;4992489;28;20041;-44
2021/01/25 09:35:55;;;;;;;19.67;14.05;;;2.80;99.90;;;;;;4992848;28;20154;-46
2021/01/25 09:38:20;;;;;;;14.70;13.13;;;2.80;99.90;;;;;;5009877;28;20064;-45
2021/01/25 09:40:46;;;;;;;19.38;13.95;;;2.70;99.90;;;;;;5011418;28;20604;-45
2021/01/25 09:43:11;;;;;;;17.00;13.63;;;2.80;99.90;;;;;;5011704;28;20061;-44
2021/01/25 09:45:37;;;;;;;18.25;13.55;;;2.80;99.90;;;;;;5011038;28;20026;-44
2021/01/25 09:48:04;;;;;;;18.52;13.45;;;2.80;99.90;;;;;;4992349;28;20545;-47
2021/01/25 09:50:30;;;;;;;19.02;13.43;;;2.80;99.90;;;;;;5008749;28;20033;-45
2021/01/25 09:52:56;;;;;;;17.58;14.23;;;2.90;99.90;;;;;;5011465;28;20030;-45
2021/01/25 09:55:22;;;;;;;16.92;13.63;;;3.10;99.90;;;;;;5011875;28;20500;-45
2021/01/25 09:57:47;;;;;;;18.45;14.85;;;3.10;99.90;;;;;;5000295;28;20108;-43
2021/01/25 10:00:14;;;;;;;19.65;13.90;;;3.10;99.90;;;;;;5003150;28;20577;-46
2021/01/25 10:02:40;;;;;;;23.42;14.48;;;3.20;99.90;;;;;;5011110;28;20028;-46
2021/01/25 10:05:07;;;;;;;18.58;13.73;;;3.20;99.90;;;;;;5007598;28;20030;-45
2021/01/25 10:07:35;;;;;;;20.45;14.10;;;3.40;99.90;;;;;;5011457;28;20045;-51
2021/01/25 10:10:07;;;;;;;19.02;13.65;;;3.40;99.90;;;;;;5004200;28;20052;-46
2021/01/25 10:12:33;;;;;;;19.45;14.10;;;3.50;99.90;;;;;;4992142;28;20379;-44
2021/01/25 10:14:59;;;;;;;17.23;13.15;;;3.60;99.90;;;;;;4998464;28;20036;-44
2021/01/25 10:17:28;;;;;;;20.45;13.45;;;3.70;99.90;;;;;;5008137;28;20032;-48
2021/01/25 10:19:53;;;;;;;16.65;12.40;;;3.70;99.90;;;;;;4999099;28;20390;-44
2021/01/25 10:22:19;;;;;;;15.20;12.43;;;3.80;99.90;;;;;;5009001;28;20038;-44
2021/01/25 10:24:44;;;;;;;16.98;12.40;;;3.60;99.90;;;;;;4991265;28;20031;-45
2021/01/25 10:27:10;;;;;;;16.92;13.38;;;3.40;99.90;;;;;;4992196;28;20492;-45
2021/01/25 10:29:35;;;;;;;19.13;13.95;;;3.30;99.90;;;;;;5011225;28;20022;-47
2021/01/25 10:32:01;;;;;;;19.73;13.70;;;3.20;99.90;;;;;;4991893;28;20398;-44
2021/01/25 10:34:26;;;;;;;19.30;13.77;;;3.20;99.90;;;;;;4991405;28;20401;-42
2021/01/25 10:36:52;;;;;;;24.40;14.85;;;3.30;99.90;;;;;;4992385;28;20030;-44
2021/01/25 10:39:18;;;;;;;20.45;14.52;;;3.40;99.90;;;;;;4990393;28;20501;-42
2021/01/25 10:41:44;;;;;;;18.42;13.98;;;3.50;99.90;;;;;;4992001;28;20031;-45
2021/01/25 10:44:09;;;;;;;19.92;14.27;;;3.40;99.90;;;;;;4991263;28;20027;-44
2021/01/25 10:46:35;;;;;;;20.25;13.18;;;3.30;99.90;;;;;;4991947;28;20022;-44
2021/01/25 10:49:00;;;;;;;24.80;14.00;;;3.20;99.90;;;;;;4991891;28;20049;-42
2021/01/25 10:51:26;;;;;;;21.38;14.27;;;3.20;99.90;;;;;;4991757;28;20125;-43
2021/01/25 10:53:51;;;;;;;28.45;15.82;;;3.10;99.90;;;;;;4995486;28;20489;-47
2021/01/25 10:56:17;;;;;;;22.27;15.45;;;3.00;99.90;;;;;;5005655;28;20608;-46
2021/01/25 10:58:42;;;;;;;22.00;15.48;;;3.00;99.90;;;;;;4993245;28;20028;-44
2021/01/25 11:01:09;;;;;;;21.85;15.05;;;3.00;99.90;;;;;;4992659;28;20065;-45
2021/01/25 11:03:36;;;;;;;20.83;14.73;;;3.00;99.90;;;;;;4991966;28;20132;-47
2021/01/25 11:06:02;;;;;;;21.70;16.33;;;3.00;99.90;;;;;;4996585;28;20493;-48
2021/01/25 11:08:28;;;;;;;24.63;15.90;;;3.10;99.90;;;;;;5005386;28;20027;-45
2021/01/25 11:10:53;;;;;;;21.60;14.25;;;3.20;99.90;;;;;;4992653;28;20040;-48
2021/01/25 11:13:19;;;;;;;21.63;15.43;;;3.30;99.90;;;;;;4992140;28;20038;-47
2021/01/25 11:15:44;;;;;;;24.63;15.20;;;3.20;99.90;;;;;;4999391;28;20030;-50
2021/01/25 11:18:10;;;;;;;23.23;15.55;;;3.20;99.90;;;;;;5010296;28;20026;-48
2021/01/25 11:20:35;;;;;;;18.95;14.05;;;3.20;99.90;;;;;;4991202;28;20053;-42
2021/01/25 11:23:01;;;;;;;18.83;14.40;;;3.20;99.90;;;;;;4992453;28;20030;-45
2021/01/25 11:25:26;;;;;;;17.92;14.80;;;3.20;99.90;;;;;;5009478;28;20029;-44
2021/01/25 11:27:52;;;;;;;18.58;15.98;;;3.20;99.90;;;;;;4991503;28;20030;-46
2021/01/25 11:30:17;;;;;;;24.75;14.93;;;3.30;99.90;;;;;;4995046;28;20065;-44
2021/01/25 11:32:43;;;;;;;20.13;14.50;;;3.20;99.90;;;;;;4990636;28;20023;-45
2021/01/25 11:35:09;;;;;;;20.95;15.45;;;3.30;99.90;;;;;;4997074;28;20160;-46
2021/01/25 11:37:35;;;;;;;20.50;14.65;;;3.30;99.90;;;;;;5002078;28;20040;-45
2021/01/25 11:40:00;;;;;;;20.25;15.25;;;3.30;99.90;;;;;;4991275;28;20097;-47
2021/01/25 11:42:26;;;;;;;21.92;15.02;;;3.50;99.90;;;;;;4994312;28;20604;-46
2021/01/25 11:44:51;;;;;;;19.25;14.98;;;3.50;99.90;;;;;;4999621;28;20041;-43
2021/01/25 11:47:17;;;;;;;17.98;14.50;;;3.50;99.90;;;;;;5001839;28;20026;-43
2021/01/25 11:49:42;;;;;;;17.63;12.45;;;3.60;99.90;;;;;;4993180;28;20029;-45
2021/01/25 11:52:08;;;;;;;18.13;13.57;;;3.60;99.90;;;;;;5000940;28;20034;-44
2021/01/25 11:54:36;;;;;;;16.08;13.18;;;3.70;99.90;;;;;;5010254;28;20033;-46
2021/01/25 11:57:02;;;;;;;16.13;12.90;;;3.70;99.90;;;;;;5010870;28;20029;-43
2021/01/25 11:59:27;;;;;;;26.88;17.13;;;3.80;99.90;;;;;;5010341;28;20041;-44
2021/01/25 12:01:53;;;;;;;16.90;13.15;;;3.80;99.90;;;;;;5007194;28;20037;-45
2021/01/25 12:04:18;;;;;;;22.27;14.02;;;3.70;99.90;;;;;;4999833;28;20461;-43
2021/01/25 12:06:44;;;;;;;18.15;14.05;;;3.70;99.90;;;;;;5010375;28;20022;-44
2021/01/25 12:09:09;;;;;;;19.80;15.63;;;3.60;99.90;;;;;;5010502;28;20036;-43
2021/01/25 12:11:35;;;;;;;20.70;14.35;;;3.60;99.90;;;;;;5007270;28;20109;-48
2021/01/25 12:14:00;;;;;;;19.98;14.82;;;3.80;99.90;;;;;;4995351;28;20028;-44
2021/01/25 12:16:27;;;;;;;19.30;14.00;;;3.80;99.90;;;;;;5010392;28;20037;-44
2021/01/25 12:18:52;;;;;;;18.85;14.18;;;3.70;99.90;;;;;;5010200;28;20037;-45
2021/01/25 12:21:18;;;;;;;20.55;15.07;;;3.80;99.90;;;;;;5013942;28;20026;-48
2021/01/25 12:23:43;;;;;;;20.10;15.95;;;3.80;99.90;;;;;;5013304;28;20037;-44
2021/01/25 12:26:09;;;;;;;22.20;16.15;;;3.80;99.90;;;;;;5013998;28;20030;-44
2021/01/25 12:28:35;;;;;;;18.08;15.25;;;3.70;99.90;;;;;;5012487;28;20160;-45
2021/01/25 12:31:04;;;;;;;20.15;14.82;;;3.70;99.90;;;;;;5011885;28;20141;-44
2021/01/25 12:33:29;;;;;;;22.52;16.33;;;3.70;99.90;;;;;;4995948;28;20041;-46
2021/01/25 12:35:55;;;;;;;18.33;14.35;;;3.80;99.90;;;;;;4988703;28;20042;-44
2021/01/25 12:38:20;;;;;;;23.42;16.45;;;3.90;99.90;;;;;;5017172;28;20194;-42
2021/01/25 12:40:46;;;;;;;18.77;15.13;;;3.80;99.90;;;;;;5015796;28;20041;-48
2021/01/25 12:43:11;;;;;;;20.08;15.10;;;3.90;99.90;;;;;;4994285;28;20536;-52
2021/01/25 12:45:37;;;;;;;18.52;15.48;;;3.90;99.90;;;;;;4992101;28;20029;-50
2021/01/25 12:48:03;;;;;;;17.75;15.15;;;3.90;99.90;;;;;;4994011;28;20434;-53